createdAt,value
2023-03-31T00:00:34.176Z,6.74
2023-03-31T00:01:34.146Z,6.74
2023-03-31T00:02:34.220Z,6.76
2023-03-31T00:03:34.559Z,6.80
2023-03-31T00:04:34.193Z,6.86
2023-03-31T00:05:34.146Z,6.94
2023-03-31T00:06:34.086Z,7.01
2023-03-31T00:07:34.082Z,7.05
2023-03-31T00:08:34.065Z,7.07
2023-03-31T00:09:34.054Z,7.06
2023-03-31T00:10:34.055Z,7.05
2023-03-31T00:11:34.084Z,7.03
2023-03-31T00:12:34.012Z,7.00
2023-03-31T00:13:34.005Z,6.97
2023-03-31T00:14:34.017Z,6.96
2023-03-31T00:15:33.970Z,6.96
2023-03-31T00:16:33.993Z,6.96
2023-03-31T00:17:34.003Z,6.95
2023-03-31T00:18:33.921Z,6.94
2023-03-31T00:19:33.916Z,6.91
2023-03-31T00:20:33.904Z,6.87
2023-03-31T00:21:34.109Z,6.84
2023-03-31T00:22:33.879Z,6.81
2023-03-31T00:23:33.904Z,6.78
2023-03-31T00:24:33.893Z,6.75
2023-03-31T00:25:33.844Z,6.73
2023-03-31T00:26:33.828Z,6.71
2023-03-31T00:27:33.806Z,6.70
2023-03-31T00:28:33.819Z,6.69
2023-03-31T00:29:33.884Z,6.67
2023-03-31T00:30:33.783Z,6.65
2023-03-31T00:31:33.783Z,6.63
2023-03-31T00:32:33.823Z,6.61
2023-03-31T00:33:33.740Z,6.60
2023-03-31T00:34:33.729Z,6.59
2023-03-31T00:35:33.761Z,6.58
2023-03-31T00:36:33.703Z,6.57
2023-03-31T00:37:33.677Z,6.58
2023-03-31T00:38:33.675Z,6.58
2023-03-31T00:39:33.667Z,6.59
2023-03-31T00:40:33.665Z,6.59
2023-03-31T00:41:33.675Z,6.60
2023-03-31T00:42:33.614Z,6.60
2023-03-31T00:43:33.623Z,6.60
2023-03-31T00:44:33.588Z,6.60
2023-03-31T00:45:33.612Z,6.61
2023-03-31T00:46:33.560Z,6.63
2023-03-31T00:47:33.601Z,6.67
2023-03-31T00:48:33.535Z,6.73
2023-03-31T00:49:33.554Z,6.81
2023-03-31T00:50:33.517Z,6.90
2023-03-31T00:51:33.506Z,6.98
2023-03-31T00:52:33.479Z,7.06
2023-03-31T00:53:33.495Z,7.14
2023-03-31T00:54:33.476Z,7.21
2023-03-31T00:55:33.451Z,7.29
2023-03-31T00:56:33.450Z,7.37
2023-03-31T00:57:33.424Z,7.45
2023-03-31T00:58:33.403Z,7.52
2023-03-31T00:59:33.497Z,7.57
2023-03-31T01:00:33.382Z,7.60
2023-03-31T01:01:33.399Z,7.62
2023-03-31T01:02:33.369Z,7.64
2023-03-31T01:03:39.733Z,7.67
2023-03-31T01:04:33.336Z,7.70
2023-03-31T01:05:33.356Z,7.72
2023-03-31T01:06:33.312Z,7.75
2023-03-31T01:07:33.308Z,7.77
2023-03-31T01:08:33.283Z,7.78
2023-03-31T01:09:33.270Z,7.78
2023-03-31T01:10:33.245Z,7.77
2023-03-31T01:11:33.292Z,7.76
2023-03-31T01:12:33.235Z,7.74
2023-03-31T01:13:33.222Z,7.72
2023-03-31T01:14:33.210Z,7.70
2023-03-31T01:15:33.188Z,7.68
2023-03-31T01:16:33.192Z,7.66
2023-03-31T01:17:33.330Z,7.64
2023-03-31T01:18:33.158Z,7.63
2023-03-31T01:19:33.140Z,7.64
2023-03-31T01:20:33.116Z,7.64
2023-03-31T01:21:33.125Z,7.65
2023-03-31T01:22:33.103Z,7.66
2023-03-31T01:23:33.113Z,7.66
2023-03-31T01:24:33.086Z,7.66
2023-03-31T01:25:33.067Z,7.66
2023-03-31T01:26:33.032Z,7.66
2023-03-31T01:27:33.028Z,7.66
2023-03-31T01:28:33.020Z,7.67
2023-03-31T01:29:33.047Z,7.68
2023-03-31T01:30:32.997Z,7.69
2023-03-31T01:31:33.102Z,7.68
2023-03-31T01:32:33.014Z,7.63
2023-03-31T01:33:32.994Z,7.56
2023-03-31T01:34:32.948Z,7.48
2023-03-31T01:35:33.014Z,7.40
2023-03-31T01:36:32.980Z,7.33
2023-03-31T01:37:32.911Z,7.26
2023-03-31T01:38:32.887Z,7.19
2023-03-31T01:39:32.891Z,7.13
2023-03-31T01:40:32.879Z,7.07
2023-03-31T01:41:32.902Z,7.01
2023-03-31T01:42:32.852Z,6.95
2023-03-31T01:43:32.825Z,6.90
2023-03-31T01:44:32.806Z,6.86
2023-03-31T01:45:32.801Z,6.82
2023-03-31T01:46:32.810Z,6.80
2023-03-31T01:47:32.867Z,6.77
2023-03-31T01:48:32.758Z,6.75
2023-03-31T01:49:32.747Z,6.72
2023-03-31T01:50:32.748Z,6.69
2023-03-31T01:51:32.735Z,6.67
2023-03-31T01:52:32.727Z,6.65
2023-03-31T01:53:32.749Z,6.64
2023-03-31T01:54:32.697Z,6.63
2023-03-31T01:55:32.680Z,6.62
2023-03-31T01:56:32.657Z,6.62
2023-03-31T01:57:32.706Z,6.63
2023-03-31T01:58:32.641Z,6.64
2023-03-31T01:59:32.646Z,6.65
2023-03-31T02:00:32.604Z,6.66
2023-03-31T02:01:33.160Z,6.66
2023-03-31T02:02:32.753Z,6.67
2023-03-31T02:03:32.605Z,6.67
2023-03-31T02:04:32.567Z,6.68
2023-03-31T02:05:32.576Z,6.68
2023-03-31T02:06:32.531Z,6.69
2023-03-31T02:07:32.543Z,6.70
2023-03-31T02:08:32.516Z,6.71
2023-03-31T02:09:32.513Z,6.71
2023-03-31T02:10:32.501Z,6.70
2023-03-31T02:11:32.492Z,6.68
2023-03-31T02:12:32.465Z,6.66
2023-03-31T02:13:32.452Z,6.64
2023-03-31T02:14:32.439Z,6.62
2023-03-31T02:15:32.436Z,6.60
2023-03-31T02:16:32.476Z,6.58
2023-03-31T02:17:32.452Z,6.56
2023-03-31T02:18:32.370Z,6.54
2023-03-31T02:19:32.361Z,6.52
2023-03-31T02:20:32.348Z,6.50
2023-03-31T02:21:32.355Z,6.48
2023-03-31T02:22:32.327Z,6.46
2023-03-31T02:23:32.427Z,6.44
2023-03-31T02:24:32.319Z,6.42
2023-03-31T02:25:32.295Z,6.40
2023-03-31T02:26:32.298Z,6.39
2023-03-31T02:27:32.262Z,6.38
2023-03-31T02:28:32.269Z,6.38
2023-03-31T02:29:32.265Z,6.39
2023-03-31T02:30:32.300Z,6.41
2023-03-31T02:31:32.263Z,6.42
2023-03-31T02:32:32.273Z,6.43
2023-03-31T02:33:32.212Z,6.45
2023-03-31T02:34:32.196Z,6.48
2023-03-31T02:35:32.238Z,6.50
2023-03-31T02:36:32.143Z,6.52
2023-03-31T02:37:32.148Z,6.54
2023-03-31T02:38:32.121Z,6.55
2023-03-31T02:39:32.130Z,6.55
2023-03-31T02:40:32.119Z,6.55
2023-03-31T02:41:32.111Z,6.55
2023-03-31T02:42:32.083Z,6.55
2023-03-31T02:43:32.060Z,6.55
2023-03-31T02:44:32.057Z,6.55
2023-03-31T02:45:32.123Z,6.55
2023-03-31T02:46:32.229Z,6.55
2023-03-31T02:47:32.065Z,6.54
2023-03-31T02:48:32.002Z,6.52
2023-03-31T02:49:31.995Z,6.51
2023-03-31T02:50:33.290Z,6.51
2023-03-31T02:51:31.988Z,6.52
2023-03-31T02:52:31.978Z,6.54
2023-03-31T02:53:31.978Z,6.55
2023-03-31T02:54:31.916Z,6.55
2023-03-31T02:55:31.901Z,6.54
2023-03-31T02:56:31.899Z,6.53
2023-03-31T02:57:31.908Z,6.51
2023-03-31T02:58:31.860Z,6.49
2023-03-31T02:59:31.891Z,6.49
2023-03-31T03:00:31.846Z,6.49
2023-03-31T03:01:31.866Z,6.48
2023-03-31T03:02:31.889Z,6.47
2023-03-31T03:03:31.890Z,6.47
2023-03-31T03:04:31.806Z,6.45
2023-03-31T03:05:31.844Z,6.44
2023-03-31T03:06:31.768Z,6.44
2023-03-31T03:07:31.776Z,6.45
2023-03-31T03:08:31.739Z,6.47
2023-03-31T03:09:31.752Z,6.49
2023-03-31T03:10:31.738Z,6.52
2023-03-31T03:11:31.739Z,6.55
2023-03-31T03:12:31.716Z,6.60
2023-03-31T03:13:31.688Z,6.63
2023-03-31T03:14:31.675Z,6.65
2023-03-31T03:15:31.688Z,6.66
2023-03-31T03:16:31.676Z,6.65
2023-03-31T03:17:31.683Z,6.65
2023-03-31T03:18:31.620Z,6.65
2023-03-31T03:19:31.606Z,6.65
2023-03-31T03:20:31.601Z,6.65
2023-03-31T03:21:31.599Z,6.64
2023-03-31T03:22:31.579Z,6.61
2023-03-31T03:23:31.580Z,6.59
2023-03-31T03:24:31.542Z,6.56
2023-03-31T03:25:31.533Z,6.53
2023-03-31T03:26:31.513Z,6.51
2023-03-31T03:27:31.516Z,6.49
2023-03-31T03:28:31.496Z,6.47
2023-03-31T03:29:31.542Z,6.45
2023-03-31T03:30:31.528Z,6.42
2023-03-31T03:31:31.451Z,6.40
2023-03-31T03:32:31.445Z,6.38
2023-03-31T03:33:31.438Z,6.37
2023-03-31T03:34:31.414Z,6.36
2023-03-31T03:35:31.427Z,6.35
2023-03-31T03:36:31.406Z,6.34
2023-03-31T03:37:31.381Z,6.33
2023-03-31T03:38:31.378Z,6.31
2023-03-31T03:39:31.407Z,6.29
2023-03-31T03:40:31.356Z,6.27
2023-03-31T03:41:31.395Z,6.24
2023-03-31T03:42:31.319Z,6.23
2023-03-31T03:43:31.305Z,6.22
2023-03-31T03:44:31.313Z,6.21
2023-03-31T03:45:31.297Z,6.20
2023-03-31T03:46:31.324Z,6.19
2023-03-31T03:47:31.310Z,6.17
2023-03-31T03:48:31.251Z,6.15
2023-03-31T03:49:31.237Z,6.14
2023-03-31T03:50:31.217Z,6.12
2023-03-31T03:51:31.207Z,6.10
2023-03-31T03:52:31.193Z,6.08
2023-03-31T03:53:31.195Z,6.06
2023-03-31T03:54:31.163Z,6.04
2023-03-31T03:55:31.149Z,6.01
2023-03-31T03:56:31.152Z,5.99
2023-03-31T03:57:31.222Z,5.98
2023-03-31T03:58:31.146Z,5.97
2023-03-31T03:59:31.109Z,5.97
2023-03-31T04:00:31.070Z,5.98
2023-03-31T04:01:31.102Z,5.99
2023-03-31T04:02:31.113Z,6.00
2023-03-31T04:03:31.037Z,6.01
2023-03-31T04:04:31.185Z,6.01
2023-03-31T04:05:31.147Z,6.02
2023-03-31T04:06:30.992Z,6.03
2023-03-31T04:07:30.986Z,6.05
2023-03-31T04:08:30.981Z,6.07
2023-03-31T04:09:30.976Z,6.10
2023-03-31T04:10:30.956Z,6.12
2023-03-31T04:11:30.970Z,6.13
2023-03-31T04:12:30.943Z,6.14
2023-03-31T04:13:30.912Z,6.16
2023-03-31T04:14:30.917Z,6.17
2023-03-31T04:15:30.886Z,6.16
2023-03-31T04:16:30.944Z,6.15
2023-03-31T04:17:30.985Z,6.14
2023-03-31T04:18:30.840Z,6.13
2023-03-31T04:19:30.862Z,6.13
2023-03-31T04:20:30.887Z,6.14
2023-03-31T04:21:30.805Z,6.15
2023-03-31T04:22:30.806Z,6.17
2023-03-31T04:23:30.819Z,6.17
2023-03-31T04:24:30.900Z,6.16
2023-03-31T04:25:30.902Z,6.15
2023-03-31T04:26:30.741Z,6.13
2023-03-31T04:27:30.733Z,6.11
2023-03-31T04:28:30.707Z,6.09
2023-03-31T04:29:30.728Z,6.07
2023-03-31T04:30:30.980Z,6.05
2023-03-31T04:31:31.030Z,6.05
2023-03-31T04:32:30.734Z,6.04
2023-03-31T04:33:30.648Z,6.04
2023-03-31T04:34:30.635Z,6.06
2023-03-31T04:35:30.666Z,6.08
2023-03-31T04:36:30.603Z,6.10
2023-03-31T04:37:30.616Z,6.10
2023-03-31T04:38:30.583Z,6.11
2023-03-31T04:39:30.600Z,6.11
2023-03-31T04:40:30.588Z,6.11
2023-03-31T04:41:30.585Z,6.11
2023-03-31T04:42:30.524Z,6.11
2023-03-31T04:43:30.549Z,6.12
2023-03-31T04:44:30.520Z,6.12
2023-03-31T04:45:30.558Z,6.13
2023-03-31T04:46:30.535Z,6.13
2023-03-31T04:47:30.544Z,6.13
2023-03-31T04:48:30.486Z,6.13
2023-03-31T04:49:30.448Z,6.14
2023-03-31T04:50:30.429Z,6.14
2023-03-31T04:51:30.413Z,6.13
2023-03-31T04:52:30.728Z,6.12
2023-03-31T04:53:30.427Z,6.12
2023-03-31T04:54:30.395Z,6.11
2023-03-31T04:55:30.364Z,6.11
2023-03-31T04:56:30.412Z,6.12
2023-03-31T04:57:30.447Z,6.12
2023-03-31T04:58:30.357Z,6.13
2023-03-31T04:59:30.380Z,6.14
2023-03-31T05:00:30.305Z,6.16
2023-03-31T05:01:30.340Z,6.18
2023-03-31T05:02:30.335Z,6.20
2023-03-31T05:03:30.558Z,6.22
2023-03-31T05:04:30.256Z,6.24
2023-03-31T05:05:30.264Z,6.28
2023-03-31T05:06:30.233Z,6.31
2023-03-31T05:07:30.221Z,6.33
2023-03-31T05:08:30.208Z,6.35
2023-03-31T05:09:30.212Z,6.37
2023-03-31T05:10:30.191Z,6.38
2023-03-31T05:11:30.205Z,6.40
2023-03-31T05:12:30.162Z,6.43
2023-03-31T05:13:30.129Z,6.45
2023-03-31T05:14:30.133Z,6.47
2023-03-31T05:15:30.126Z,6.48
2023-03-31T05:16:30.183Z,6.48
2023-03-31T05:17:30.167Z,6.47
2023-03-31T05:18:30.096Z,6.45
2023-03-31T05:19:30.082Z,6.43
2023-03-31T05:20:30.123Z,6.41
2023-03-31T05:21:30.041Z,6.39
2023-03-31T05:22:30.029Z,6.36
2023-03-31T05:23:30.181Z,6.34
2023-03-31T05:24:30.054Z,6.32
2023-03-31T05:25:30.012Z,6.30
2023-03-31T05:26:29.982Z,6.27
2023-03-31T05:27:29.983Z,6.25
2023-03-31T05:28:31.266Z,6.23
2023-03-31T05:29:29.985Z,6.23
2023-03-31T05:30:29.983Z,6.23
2023-03-31T05:31:29.934Z,6.24
2023-03-31T05:32:29.968Z,6.26
2023-03-31T05:33:29.885Z,6.28
2023-03-31T05:34:29.901Z,6.29
2023-03-31T05:35:29.915Z,6.31
2023-03-31T05:36:29.918Z,6.32
2023-03-31T05:37:29.862Z,6.33
2023-03-31T05:38:29.827Z,6.34
2023-03-31T05:39:29.854Z,6.36
2023-03-31T05:40:29.803Z,6.39
2023-03-31T05:41:29.826Z,6.41
2023-03-31T05:42:29.785Z,6.43
2023-03-31T05:43:29.765Z,6.44
2023-03-31T05:44:29.749Z,6.44
2023-03-31T05:45:29.743Z,6.42
2023-03-31T05:46:29.808Z,6.41
2023-03-31T05:47:29.833Z,6.40
2023-03-31T05:48:29.709Z,6.39
2023-03-31T05:49:29.680Z,6.41
2023-03-31T05:50:29.701Z,6.42
2023-03-31T05:51:29.668Z,6.43
2023-03-31T05:52:29.684Z,6.44
2023-03-31T05:53:29.673Z,6.44
2023-03-31T05:54:29.644Z,6.44
2023-03-31T05:55:30.751Z,6.43
2023-03-31T05:56:29.639Z,6.43
2023-03-31T05:57:29.629Z,6.43
2023-03-31T05:58:29.571Z,6.43
2023-03-31T05:59:29.593Z,6.43
2023-03-31T06:00:29.631Z,6.43
2023-03-31T06:01:29.698Z,6.43
2023-03-31T06:02:29.571Z,6.43
2023-03-31T06:03:29.619Z,6.43
2023-03-31T06:04:29.564Z,6.43
2023-03-31T06:05:29.525Z,6.42
2023-03-31T06:06:29.463Z,6.42
2023-03-31T06:07:29.501Z,6.42
2023-03-31T06:08:29.484Z,6.41
2023-03-31T06:09:29.506Z,6.41
2023-03-31T06:10:29.420Z,6.40
2023-03-31T06:11:29.441Z,6.40
2023-03-31T06:12:29.409Z,6.39
2023-03-31T06:13:29.373Z,6.39
2023-03-31T06:14:29.377Z,6.39
2023-03-31T06:15:29.351Z,6.39
2023-03-31T06:16:29.377Z,6.41
2023-03-31T06:17:29.372Z,6.43
2023-03-31T06:18:29.347Z,6.45
2023-03-31T06:19:29.315Z,6.47
2023-03-31T06:20:30.230Z,6.48
2023-03-31T06:21:29.264Z,6.48
2023-03-31T06:22:29.281Z,6.50
2023-03-31T06:23:29.336Z,6.51
2023-03-31T06:24:30.210Z,6.51
2023-03-31T06:25:32.513Z,6.52
2023-03-31T06:26:29.235Z,6.53
2023-03-31T06:27:29.219Z,6.55
2023-03-31T06:28:29.181Z,6.57
2023-03-31T06:29:29.222Z,6.58
2023-03-31T06:30:29.206Z,6.59
2023-03-31T06:31:29.178Z,6.60
2023-03-31T06:32:29.197Z,6.61
2023-03-31T06:33:29.114Z,6.62
2023-03-31T06:34:29.149Z,6.63
2023-03-31T06:35:29.132Z,6.65
2023-03-31T06:36:29.073Z,6.68
2023-03-31T06:37:29.106Z,6.71
2023-03-31T06:38:29.152Z,6.74
2023-03-31T06:39:29.059Z,6.77
2023-03-31T06:40:29.087Z,6.80
2023-03-31T06:41:29.074Z,6.82
2023-03-31T06:42:29.032Z,6.84
2023-03-31T06:43:29.015Z,6.88
2023-03-31T06:44:29.022Z,6.94
2023-03-31T06:45:28.967Z,7.01
2023-03-31T06:46:28.968Z,7.05
2023-03-31T06:47:28.972Z,7.08
2023-03-31T06:48:28.970Z,7.13
2023-03-31T06:49:29.124Z,7.18
2023-03-31T06:50:28.893Z,7.23
2023-03-31T06:51:30.131Z,7.29
2023-03-31T06:52:28.879Z,7.41
2023-03-31T06:53:28.921Z,7.57
2023-03-31T06:54:28.889Z,7.68
2023-03-31T06:55:28.840Z,7.74
2023-03-31T06:56:28.808Z,7.79
2023-03-31T06:57:28.884Z,7.81
2023-03-31T06:58:31.430Z,7.82
2023-03-31T06:59:28.816Z,7.84
2023-03-31T07:00:28.774Z,7.86
2023-03-31T07:01:28.773Z,7.92
2023-03-31T07:02:28.869Z,7.98
2023-03-31T07:03:28.823Z,8.06
2023-03-31T07:04:28.724Z,8.13
2023-03-31T07:05:28.746Z,8.21
2023-03-31T07:06:28.714Z,8.25
2023-03-31T07:07:28.666Z,8.25
2023-03-31T07:08:28.664Z,8.22
2023-03-31T07:09:28.663Z,8.17
2023-03-31T07:10:28.674Z,8.10
2023-03-31T07:11:28.729Z,8.05
2023-03-31T07:12:28.657Z,8.04
2023-03-31T07:13:28.643Z,8.07
2023-03-31T07:14:28.604Z,8.11
2023-03-31T07:15:28.593Z,8.18
2023-03-31T07:16:28.613Z,8.33
2023-03-31T07:17:28.626Z,8.50
2023-03-31T07:18:28.522Z,8.64
2023-03-31T07:19:28.519Z,8.73
2023-03-31T07:20:28.496Z,8.79
2023-03-31T07:21:28.499Z,8.82
2023-03-31T07:22:28.474Z,8.82
2023-03-31T07:23:28.488Z,8.84
2023-03-31T07:24:28.481Z,8.85
2023-03-31T07:25:28.437Z,8.86
2023-03-31T07:26:28.447Z,8.86
2023-03-31T07:27:28.415Z,8.85
2023-03-31T07:28:28.390Z,8.84
2023-03-31T07:29:28.408Z,8.82
2023-03-31T07:30:29.178Z,8.81
2023-03-31T07:31:28.397Z,8.79
2023-03-31T07:32:29.201Z,8.76
2023-03-31T07:33:28.382Z,8.72
2023-03-31T07:34:28.331Z,8.70
2023-03-31T07:35:28.354Z,8.70
2023-03-31T07:36:28.321Z,8.69
2023-03-31T07:37:28.281Z,8.66
2023-03-31T07:38:28.320Z,8.61
2023-03-31T07:39:28.263Z,8.55
2023-03-31T07:40:28.271Z,8.49
2023-03-31T07:41:28.305Z,8.44
2023-03-31T07:42:28.236Z,8.40
2023-03-31T07:43:28.218Z,8.37
2023-03-31T07:44:28.202Z,8.37
2023-03-31T07:45:28.199Z,8.38
2023-03-31T07:46:28.286Z,8.40
2023-03-31T07:47:28.198Z,8.41
2023-03-31T07:48:28.141Z,8.42
2023-03-31T07:49:28.156Z,8.41
2023-03-31T07:50:28.150Z,8.40
2023-03-31T07:51:28.101Z,8.37
2023-03-31T07:52:28.125Z,8.34
2023-03-31T07:53:28.181Z,8.30
2023-03-31T07:54:28.084Z,8.25
2023-03-31T07:55:28.054Z,8.22
2023-03-31T07:56:28.043Z,8.22
2023-03-31T07:57:28.054Z,8.25
2023-03-31T07:58:28.100Z,8.33
2023-03-31T07:59:28.071Z,8.46
2023-03-31T08:00:28.004Z,8.70
2023-03-31T08:01:27.978Z,8.97
2023-03-31T08:02:28.095Z,9.18
2023-03-31T08:03:28.608Z,9.30
2023-03-31T08:04:27.994Z,9.58
2023-03-31T08:05:27.947Z,10.11
2023-03-31T08:06:27.918Z,10.70
2023-03-31T08:07:27.917Z,11.31
2023-03-31T08:08:28.592Z,11.97
2023-03-31T08:09:27.862Z,12.61
2023-03-31T08:10:27.895Z,13.18
2023-03-31T08:11:27.898Z,13.70
2023-03-31T08:12:27.948Z,14.18
2023-03-31T08:13:27.822Z,14.63
2023-03-31T08:14:40.034Z,15.07
2023-03-31T08:15:27.799Z,15.48
2023-03-31T08:16:27.837Z,15.81
2023-03-31T08:17:27.792Z,15.90
2023-03-31T08:18:27.765Z,15.77
2023-03-31T08:19:27.760Z,15.44
2023-03-31T08:20:27.742Z,15.10
2023-03-31T08:21:27.754Z,14.81
2023-03-31T08:22:27.708Z,14.65
2023-03-31T08:23:27.715Z,14.78
2023-03-31T08:24:27.728Z,15.10
2023-03-31T08:25:27.654Z,15.41
2023-03-31T08:26:27.657Z,15.65
2023-03-31T08:27:27.643Z,15.87
2023-03-31T08:28:27.625Z,16.19
2023-03-31T08:29:27.669Z,16.55
2023-03-31T08:30:27.605Z,16.80
2023-03-31T08:31:27.738Z,16.96
2023-03-31T08:32:27.607Z,16.69
2023-03-31T08:33:27.594Z,16.19
2023-03-31T08:34:27.574Z,15.80
2023-03-31T08:35:27.569Z,15.61
2023-03-31T08:36:27.654Z,15.69
2023-03-31T08:37:27.517Z,15.71
2023-03-31T08:38:27.534Z,15.53
2023-03-31T08:39:27.556Z,15.58
2023-03-31T08:40:27.535Z,15.85
2023-03-31T08:41:27.492Z,16.11
2023-03-31T08:42:27.464Z,16.36
2023-03-31T08:43:27.471Z,16.54
2023-03-31T08:44:27.489Z,16.69
2023-03-31T08:45:27.481Z,16.85
2023-03-31T08:46:27.502Z,17.10
2023-03-31T08:47:27.465Z,17.37
2023-03-31T08:48:27.407Z,17.39
2023-03-31T08:49:27.373Z,17.17
2023-03-31T08:50:27.416Z,17.04
2023-03-31T08:51:27.360Z,17.11
2023-03-31T08:52:27.343Z,17.27
2023-03-31T08:53:27.346Z,17.40
2023-03-31T08:54:27.366Z,17.55
2023-03-31T08:55:27.342Z,17.52
2023-03-31T08:56:27.294Z,17.35
2023-03-31T08:57:27.396Z,16.96
2023-03-31T08:58:27.271Z,16.50
2023-03-31T08:59:27.315Z,16.24
2023-03-31T09:00:27.234Z,15.96
2023-03-31T09:01:27.269Z,15.51
2023-03-31T09:02:27.419Z,14.96
2023-03-31T09:03:27.275Z,14.40
2023-03-31T09:04:27.230Z,13.89
2023-03-31T09:05:27.208Z,13.52
2023-03-31T09:06:27.168Z,13.29
2023-03-31T09:07:27.189Z,13.29
2023-03-31T09:08:27.167Z,13.45
2023-03-31T09:09:27.196Z,13.79
2023-03-31T09:10:27.105Z,14.32
2023-03-31T09:11:27.174Z,14.77
2023-03-31T09:12:27.093Z,15.15
2023-03-31T09:13:27.146Z,15.23
2023-03-31T09:14:27.130Z,15.37
2023-03-31T09:15:27.101Z,15.75
2023-03-31T09:16:27.087Z,16.21
2023-03-31T09:17:27.108Z,16.62
2023-03-31T09:18:27.173Z,16.93
2023-03-31T09:19:27.017Z,17.25
2023-03-31T09:20:27.004Z,17.26
2023-03-31T09:21:26.983Z,17.18
2023-03-31T09:22:26.985Z,17.12
2023-03-31T09:23:26.987Z,16.77
2023-03-31T09:24:26.981Z,16.24
2023-03-31T09:25:26.983Z,15.68
2023-03-31T09:26:26.932Z,15.22
2023-03-31T09:27:26.957Z,14.86
2023-03-31T09:28:26.930Z,14.51
2023-03-31T09:29:26.966Z,14.27
2023-03-31T09:30:26.859Z,13.98
2023-03-31T09:31:26.918Z,13.78
2023-03-31T09:32:26.862Z,13.95
2023-03-31T09:33:26.846Z,14.62
2023-03-31T09:34:26.852Z,15.36
2023-03-31T09:35:26.976Z,15.84
2023-03-31T09:36:26.821Z,16.23
2023-03-31T09:37:26.791Z,16.25
2023-03-31T09:38:26.787Z,15.81
2023-03-31T09:39:26.771Z,15.23
2023-03-31T09:40:26.747Z,14.68
2023-03-31T09:41:26.764Z,14.27
2023-03-31T09:42:26.720Z,13.97
2023-03-31T09:43:26.708Z,13.72
2023-03-31T09:44:26.708Z,13.49
2023-03-31T09:45:26.738Z,13.29
2023-03-31T09:46:26.764Z,13.03
2023-03-31T09:47:26.744Z,12.73
2023-03-31T09:48:26.650Z,12.43
2023-03-31T09:49:26.722Z,12.15
2023-03-31T09:50:26.670Z,11.91
2023-03-31T09:51:26.649Z,11.71
2023-03-31T09:52:26.595Z,11.53
2023-03-31T09:53:26.635Z,11.33
2023-03-31T09:54:26.560Z,11.12
2023-03-31T09:55:39.005Z,10.93
2023-03-31T09:56:26.535Z,10.74
2023-03-31T09:57:26.720Z,10.55
2023-03-31T09:58:26.538Z,10.35
2023-03-31T09:59:26.546Z,10.15
2023-03-31T10:00:26.494Z,9.94
2023-03-31T10:01:26.489Z,9.76
2023-03-31T10:02:26.655Z,9.61
2023-03-31T10:03:26.450Z,9.46
2023-03-31T10:04:26.567Z,9.31
2023-03-31T10:05:26.435Z,9.17
2023-03-31T10:06:26.409Z,9.05
2023-03-31T10:07:26.394Z,8.97
2023-03-31T10:08:26.395Z,8.94
2023-03-31T10:09:27.019Z,8.94
2023-03-31T10:10:26.435Z,8.95
2023-03-31T10:11:26.360Z,8.95
2023-03-31T10:12:26.328Z,8.94
2023-03-31T10:13:26.325Z,8.92
2023-03-31T10:14:26.317Z,8.90
2023-03-31T10:15:26.341Z,8.90
2023-03-31T10:16:26.389Z,8.90
2023-03-31T10:17:26.445Z,8.87
2023-03-31T10:18:26.329Z,8.82
2023-03-31T10:19:26.266Z,8.75
2023-03-31T10:20:26.232Z,8.70
2023-03-31T10:21:26.276Z,8.67
2023-03-31T10:22:26.208Z,8.65
2023-03-31T10:23:26.243Z,8.67
2023-03-31T10:24:26.181Z,8.72
2023-03-31T10:25:26.169Z,8.77
2023-03-31T10:26:26.186Z,8.77
2023-03-31T10:27:26.153Z,8.74
2023-03-31T10:28:26.116Z,8.68
2023-03-31T10:29:26.185Z,8.61
2023-03-31T10:30:26.100Z,8.54
2023-03-31T10:31:26.159Z,8.49
2023-03-31T10:32:26.114Z,8.42
2023-03-31T10:33:26.108Z,8.34
2023-03-31T10:34:26.091Z,8.26
2023-03-31T10:35:26.128Z,8.18
2023-03-31T10:36:26.045Z,8.11
2023-03-31T10:37:26.023Z,8.09
2023-03-31T10:38:25.994Z,8.10
2023-03-31T10:39:25.988Z,8.33
2023-03-31T10:40:25.973Z,9.10
2023-03-31T10:41:26.018Z,10.25
2023-03-31T10:42:25.947Z,11.37
2023-03-31T10:43:25.925Z,12.31
2023-03-31T10:44:25.901Z,12.78
2023-03-31T10:45:36.430Z,13.02
2023-03-31T10:46:25.953Z,13.33
2023-03-31T10:47:25.918Z,13.72
2023-03-31T10:48:25.861Z,14.11
2023-03-31T10:49:25.833Z,14.44
2023-03-31T10:50:25.825Z,14.77
2023-03-31T10:51:25.861Z,15.00
2023-03-31T10:52:25.828Z,15.23
2023-03-31T10:53:25.857Z,15.52
2023-03-31T10:54:26.616Z,15.78
2023-03-31T10:55:25.844Z,16.07
2023-03-31T10:56:25.765Z,16.42
2023-03-31T10:57:25.786Z,16.74
2023-03-31T10:58:25.748Z,16.86
2023-03-31T10:59:25.791Z,16.69
2023-03-31T11:00:25.711Z,16.37
2023-03-31T11:01:25.733Z,16.02
2023-03-31T11:02:25.713Z,15.63
2023-03-31T11:03:25.825Z,15.24
2023-03-31T11:04:25.663Z,14.89
2023-03-31T11:05:25.697Z,14.48
2023-03-31T11:06:25.660Z,14.04
2023-03-31T11:07:25.690Z,13.61
2023-03-31T11:08:25.677Z,13.22
2023-03-31T11:09:25.643Z,12.89
2023-03-31T11:10:25.595Z,12.63
2023-03-31T11:11:25.673Z,12.48
2023-03-31T11:12:25.579Z,12.39
2023-03-31T11:13:25.599Z,12.31
2023-03-31T11:14:25.567Z,12.18
2023-03-31T11:15:25.527Z,12.01
2023-03-31T11:16:25.615Z,11.82
2023-03-31T11:17:25.618Z,11.63
2023-03-31T11:18:25.500Z,11.43
2023-03-31T11:19:25.473Z,11.25
2023-03-31T11:20:25.476Z,11.09
2023-03-31T11:21:25.434Z,10.92
2023-03-31T11:22:25.442Z,10.74
2023-03-31T11:23:25.455Z,10.59
2023-03-31T11:24:25.411Z,10.45
2023-03-31T11:25:25.408Z,10.35
2023-03-31T11:26:25.372Z,10.27
2023-03-31T11:27:25.366Z,10.21
2023-03-31T11:28:25.357Z,10.14
2023-03-31T11:29:25.373Z,10.09
2023-03-31T11:30:25.329Z,10.05
2023-03-31T11:31:25.339Z,10.01
2023-03-31T11:32:25.326Z,9.97
2023-03-31T11:33:25.310Z,9.90
2023-03-31T11:34:25.273Z,9.82
2023-03-31T11:35:25.304Z,9.74
2023-03-31T11:36:25.264Z,9.65
2023-03-31T11:37:25.246Z,9.57
2023-03-31T11:38:25.243Z,9.52
2023-03-31T11:39:25.215Z,9.49
2023-03-31T11:40:25.188Z,9.47
2023-03-31T11:41:25.215Z,9.46
2023-03-31T11:42:25.176Z,9.44
2023-03-31T11:43:25.170Z,9.43
2023-03-31T11:44:25.172Z,9.42
2023-03-31T11:45:25.171Z,9.40
2023-03-31T11:46:25.159Z,9.39
2023-03-31T11:47:25.170Z,9.39
2023-03-31T11:48:25.119Z,9.40
2023-03-31T11:49:25.074Z,9.41
2023-03-31T11:50:25.075Z,9.42
2023-03-31T11:51:25.063Z,9.44
2023-03-31T11:52:25.063Z,9.45
2023-03-31T11:53:25.070Z,9.44
2023-03-31T11:54:25.098Z,9.44
2023-03-31T11:55:25.010Z,9.44
2023-03-31T11:56:25.006Z,9.44
2023-03-31T11:57:24.998Z,9.41
2023-03-31T11:58:24.968Z,9.37
2023-03-31T11:59:25.010Z,9.32
2023-03-31T12:00:24.947Z,9.28
2023-03-31T12:01:24.913Z,9.23
2023-03-31T12:02:25.045Z,9.19
2023-03-31T12:03:24.994Z,9.17
2023-03-31T12:04:24.930Z,9.15
2023-03-31T12:05:25.026Z,9.17
2023-03-31T12:06:24.944Z,9.26
2023-03-31T12:07:24.870Z,9.43
2023-03-31T12:08:24.866Z,9.72
2023-03-31T12:09:24.845Z,10.13
2023-03-31T12:10:24.821Z,10.62
2023-03-31T12:11:24.850Z,11.38
2023-03-31T12:12:24.792Z,12.44
2023-03-31T12:13:24.793Z,13.55
2023-03-31T12:14:24.751Z,14.56
2023-03-31T12:15:24.769Z,15.34
2023-03-31T12:16:24.820Z,15.93
2023-03-31T12:17:24.794Z,16.36
2023-03-31T12:18:24.694Z,16.58
2023-03-31T12:19:24.691Z,16.63
2023-03-31T12:20:24.675Z,16.45
2023-03-31T12:21:24.669Z,15.92
2023-03-31T12:22:24.650Z,15.26
2023-03-31T12:23:24.674Z,14.72
2023-03-31T12:24:24.681Z,14.28
2023-03-31T12:25:24.615Z,13.98
2023-03-31T12:26:24.603Z,13.79
2023-03-31T12:27:24.622Z,13.67
2023-03-31T12:28:24.610Z,13.60
2023-03-31T12:29:24.602Z,13.60
2023-03-31T12:30:24.577Z,13.69
2023-03-31T12:31:24.657Z,13.81
2023-03-31T12:32:24.591Z,13.93
2023-03-31T12:33:24.518Z,14.02
2023-03-31T12:34:24.511Z,14.10
2023-03-31T12:35:24.533Z,14.19
2023-03-31T12:36:24.535Z,14.26
2023-03-31T12:37:24.461Z,14.27
2023-03-31T12:38:24.458Z,14.30
2023-03-31T12:39:24.451Z,14.36
2023-03-31T12:40:24.452Z,14.46
2023-03-31T12:41:24.437Z,14.54
2023-03-31T12:42:25.176Z,14.58
2023-03-31T12:43:24.433Z,14.50
2023-03-31T12:44:24.384Z,14.30
2023-03-31T12:45:24.373Z,14.06
2023-03-31T12:46:24.402Z,13.84
2023-03-31T12:47:24.429Z,13.61
2023-03-31T12:48:24.333Z,13.36
2023-03-31T12:49:24.331Z,13.13
2023-03-31T12:50:24.311Z,12.93
2023-03-31T12:51:24.291Z,12.74
2023-03-31T12:52:24.284Z,12.55
2023-03-31T12:53:24.331Z,12.35
2023-03-31T12:54:24.264Z,12.12
2023-03-31T12:55:24.261Z,11.84
2023-03-31T12:56:25.223Z,11.55
2023-03-31T12:57:24.254Z,11.27
2023-03-31T12:58:24.700Z,10.98
2023-03-31T12:59:24.224Z,10.73
2023-03-31T13:00:24.230Z,10.53
2023-03-31T13:01:24.274Z,10.36
2023-03-31T13:02:24.254Z,10.21
2023-03-31T13:03:24.155Z,10.07
2023-03-31T13:04:24.119Z,9.96
2023-03-31T13:05:24.137Z,9.85
2023-03-31T13:06:24.118Z,9.64
2023-03-31T13:07:28.337Z,9.28
2023-03-31T13:08:24.073Z,8.84
2023-03-31T13:09:24.099Z,8.43
2023-03-31T13:10:24.095Z,8.14
2023-03-31T13:11:24.085Z,7.94